sensor_id;sensor_type;location;lat;lon;timestamp;P1;durP1;ratioP1;P2;durP2;ratioP2
826;SDS011;395;48.132;11.608;2023-07-13T00:31:23;3.00;;;2.80;;
826;SDS011;395;48.132;11.608;2023-07-13T00:34:02;3.60;;;3.30;;
826;SDS011;395;48.132;11.608;2023-07-13T00:36:29;2.80;;;2.60;;
826;SDS011;395;48.132;11.608;2023-07-13T00:38:56;2.97;;;2.77;;
826;SDS011;395;48.132;11.608;2023-07-13T00:41:21;2.70;;;2.50;;
826;SDS011;395;48.132;11.608;2023-07-13T00:43:47;3.27;;;2.47;;
826;SDS011;395;48.132;11.608;2023-07-13T00:46:15;5.83;;;2.60;;
826;SDS011;395;48.132;11.608;2023-07-13T00:48:44;2.87;;;2.57;;
826;SDS011;395;48.132;11.608;2023-07-13T00:51:11;2.80;;;2.50;;
826;SDS011;395;48.132;11.608;2023-07-13T00:53:38;3.93;;;2.50;;
826;SDS011;395;48.132;11.608;2023-07-13T00:56:04;2.83;;;2.63;;
826;SDS011;395;48.132;11.608;2023-07-13T00:58:31;2.57;;;2.37;;
826;SDS011;395;48.132;11.608;2023-07-13T01:00:57;2.97;;;2.70;;
826;SDS011;395;48.132;11.608;2023-07-13T01:03:23;3.80;;;3.07;;
826;SDS011;395;48.132;11.608;2023-07-13T01:05:49;5.10;;;3.00;;
826;SDS011;395;48.132;11.608;2023-07-13T01:08:16;2.63;;;2.40;;
826;SDS011;395;48.132;11.608;2023-07-13T01:10:50;4.40;;;2.50;;
826;SDS011;395;48.132;11.608;2023-07-13T01:13:17;2.90;;;2.70;;
826;SDS011;395;48.132;11.608;2023-07-13T01:15:45;2.63;;;2.43;;
826;SDS011;395;48.132;11.608;2023-07-13T01:18:23;2.80;;;2.20;;
826;SDS011;395;48.132;11.608;2023-07-13T01:20:54;3.17;;;2.97;;
826;SDS011;395;48.132;11.608;2023-07-13T01:23:19;2.93;;;2.63;;
826;SDS011;395;48.132;11.608;2023-07-13T01:25:45;3.13;;;2.73;;
826;SDS011;395;48.132;11.608;2023-07-13T01:28:11;3.20;;;2.90;;
826;SDS011;395;48.132;11.608;2023-07-13T01:30:37;2.80;;;2.47;;
826;SDS011;395;48.132;11.608;2023-07-13T01:33:05;2.30;;;2.10;;
826;SDS011;395;48.132;11.608;2023-07-13T01:35:32;2.90;;;2.53;;
826;SDS011;395;48.132;11.608;2023-07-13T01:37:58;2.83;;;2.57;;
826;SDS011;395;48.132;11.608;2023-07-13T01:40:26;4.43;;;2.97;;
826;SDS011;395;48.132;11.608;2023-07-13T01:42:52;3.40;;;2.50;;
826;SDS011;395;48.132;11.608;2023-07-13T01:45:17;2.90;;;2.50;;
826;SDS011;395;48.132;11.608;2023-07-13T01:47:43;3.70;;;2.80;;
826;SDS011;395;48.132;11.608;2023-07-13T01:50:09;2.27;;;2.07;;
826;SDS011;395;48.132;11.608;2023-07-13T01:52:35;2.93;;;2.50;;
826;SDS011;395;48.132;11.608;2023-07-13T01:55:01;2.63;;;2.43;;
826;SDS011;395;48.132;11.608;2023-07-13T01:57:27;4.90;;;2.80;;
826;SDS011;395;48.132;11.608;2023-07-13T01:59:53;2.60;;;2.40;;
826;SDS011;395;48.132;11.608;2023-07-13T02:02:19;3.10;;;2.90;;
826;SDS011;395;48.132;11.608;2023-07-13T02:04:44;3.30;;;2.40;;
826;SDS011;395;48.132;11.608;2023-07-13T02:07:10;3.63;;;3.10;;
826;SDS011;395;48.132;11.608;2023-07-13T02:09:36;3.77;;;3.03;;
826;SDS011;395;48.132;11.608;2023-07-13T02:12:02;3.30;;;2.80;;
826;SDS011;395;48.132;11.608;2023-07-13T02:14:28;3.13;;;2.83;;
826;SDS011;395;48.132;11.608;2023-07-13T02:16:53;3.00;;;2.80;;
826;SDS011;395;48.132;11.608;2023-07-13T02:19:19;4.90;;;2.83;;
826;SDS011;395;48.132;11.608;2023-07-13T02:21:45;5.07;;;2.93;;
826;SDS011;395;48.132;11.608;2023-07-13T02:24:10;3.23;;;2.50;;
826;SDS011;395;48.132;11.608;2023-07-13T02:26:42;3.30;;;3.00;;
826;SDS011;395;48.132;11.608;2023-07-13T02:29:09;3.70;;;3.40;;
826;SDS011;395;48.132;11.608;2023-07-13T02:31:35;3.47;;;3.17;;
826;SDS011;395;48.132;11.608;2023-07-13T02:34:01;3.60;;;2.70;;
826;SDS011;395;48.132;11.608;2023-07-13T02:36:29;3.47;;;3.03;;
826;SDS011;395;48.132;11.608;2023-07-13T02:38:55;3.40;;;2.60;;
826;SDS011;395;48.132;11.608;2023-07-13T02:41:21;3.60;;;3.30;;
826;SDS011;395;48.132;11.608;2023-07-13T02:43:49;2.87;;;2.67;;
826;SDS011;395;48.132;11.608;2023-07-13T02:46:14;3.60;;;3.20;;
826;SDS011;395;48.132;11.608;2023-07-13T02:48:40;5.27;;;3.50;;
826;SDS011;395;48.132;11.608;2023-07-13T02:51:06;5.13;;;2.90;;
826;SDS011;395;48.132;11.608;2023-07-13T02:53:33;4.00;;;3.13;;
826;SDS011;395;48.132;11.608;2023-07-13T02:56:00;4.73;;;4.03;;
826;SDS011;395;48.132;11.608;2023-07-13T02:58:26;5.03;;;4.10;;
826;SDS011;395;48.132;11.608;2023-07-13T03:00:52;4.00;;;3.70;;
826;SDS011;395;48.132;11.608;2023-07-13T03:03:18;5.10;;;3.83;;
826;SDS011;395;48.132;11.608;2023-07-13T03:05:44;6.00;;;3.93;;
826;SDS011;395;48.132;11.608;2023-07-13T03:08:15;4.20;;;3.80;;
826;SDS011;395;48.132;11.608;2023-07-13T03:10:40;4.17;;;3.77;;
826;SDS011;395;48.132;11.608;2023-07-13T03:13:06;4.10;;;3.70;;
826;SDS011;395;48.132;11.608;2023-07-13T03:15:32;4.20;;;3.53;;
826;SDS011;395;48.132;11.608;2023-07-13T03:17:58;4.00;;;3.57;;
826;SDS011;395;48.132;11.608;2023-07-13T03:20:23;6.00;;;3.77;;
826;SDS011;395;48.132;11.608;2023-07-13T03:22:49;5.07;;;3.47;;
826;SDS011;395;48.132;11.608;2023-07-13T03:25:14;4.80;;;3.53;;
826;SDS011;395;48.132;11.608;2023-07-13T03:27:40;4.27;;;3.63;;
826;SDS011;395;48.132;11.608;2023-07-13T03:30:06;3.70;;;3.40;;
826;SDS011;395;48.132;11.608;2023-07-13T03:32:32;3.27;;;2.90;;
826;SDS011;395;48.132;11.608;2023-07-13T03:34:58;3.60;;;2.93;;
826;SDS011;395;48.132;11.608;2023-07-13T03:37:24;6.80;;;3.77;;
826;SDS011;395;48.132;11.608;2023-07-13T03:39:50;4.63;;;3.67;;
826;SDS011;395;48.132;11.608;2023-07-13T03:42:15;3.97;;;3.30;;
826;SDS011;395;48.132;11.608;2023-07-13T03:44:41;4.50;;;3.17;;
826;SDS011;395;48.132;11.608;2023-07-13T03:47:10;3.93;;;3.30;;
826;SDS011;395;48.132;11.608;2023-07-13T03:49:36;5.67;;;3.33;;
826;SDS011;395;48.132;11.608;2023-07-13T03:52:02;4.50;;;3.47;;
826;SDS011;395;48.132;11.608;2023-07-13T03:54:28;3.73;;;3.30;;
826;SDS011;395;48.132;11.608;2023-07-13T03:56:54;2.93;;;2.60;;
826;SDS011;395;48.132;11.608;2023-07-13T03:59:20;4.00;;;3.33;;
826;SDS011;395;48.132;11.608;2023-07-13T04:01:45;3.43;;;3.13;;
826;SDS011;395;48.132;11.608;2023-07-13T04:04:11;3.70;;;3.40;;
826;SDS011;395;48.132;11.608;2023-07-13T04:06:37;3.57;;;3.27;;
826;SDS011;395;48.132;11.608;2023-07-13T04:09:03;3.60;;;3.30;;
826;SDS011;395;48.132;11.608;2023-07-13T04:11:34;4.77;;;3.23;;
826;SDS011;395;48.132;11.608;2023-07-13T04:14:03;3.20;;;3.00;;
826;SDS011;395;48.132;11.608;2023-07-13T04:16:29;4.03;;;3.47;;
826;SDS011;395;48.132;11.608;2023-07-13T04:18:55;3.33;;;2.80;;
826;SDS011;395;48.132;11.608;2023-07-13T04:21:24;3.50;;;3.20;;
826;SDS011;395;48.132;11.608;2023-07-13T04:23:51;4.57;;;3.53;;
826;SDS011;395;48.132;11.608;2023-07-13T04:26:16;3.33;;;3.00;;
826;SDS011;395;48.132;11.608;2023-07-13T04:28:42;4.30;;;3.50;;
826;SDS011;395;48.132;11.608;2023-07-13T04:31:08;6.20;;;3.10;;
826;SDS011;395;48.132;11.608;2023-07-13T04:33:35;4.40;;;3.20;;
826;SDS011;395;48.132;11.608;2023-07-13T04:36:00;4.53;;;3.00;;
826;SDS011;395;48.132;11.608;2023-07-13T04:38:27;3.70;;;3.30;;
826;SDS011;395;48.132;11.608;2023-07-13T04:40:56;3.73;;;2.83;;
826;SDS011;395;48.132;11.608;2023-07-13T04:43:23;3.60;;;3.30;;
826;SDS011;395;48.132;11.608;2023-07-13T04:45:50;5.80;;;3.07;;
826;SDS011;395;48.132;11.608;2023-07-13T04:48:17;3.50;;;3.10;;
826;SDS011;395;48.132;11.608;2023-07-13T04:50:43;3.50;;;3.07;;
826;SDS011;395;48.132;11.608;2023-07-13T04:53:08;4.90;;;3.90;;
826;SDS011;395;48.132;11.608;2023-07-13T04:55:35;5.70;;;3.10;;
826;SDS011;395;48.132;11.608;2023-07-13T04:58:01;8.27;;;3.30;;
826;SDS011;395;48.132;11.608;2023-07-13T05:00:28;3.40;;;2.80;;
826;SDS011;395;48.132;11.608;2023-07-13T05:02:54;3.00;;;2.70;;
826;SDS011;395;48.132;11.608;2023-07-13T05:05:20;5.50;;;3.70;;
826;SDS011;395;48.132;11.608;2023-07-13T05:07:46;2.90;;;2.70;;
826;SDS011;395;48.132;11.608;2023-07-13T05:10:12;3.03;;;2.73;;
826;SDS011;395;48.132;11.608;2023-07-13T05:12:37;3.40;;;3.10;;
826;SDS011;395;48.132;11.608;2023-07-13T05:15:03;4.80;;;3.40;;
826;SDS011;395;48.132;11.608;2023-07-13T05:17:29;3.90;;;3.17;;
826;SDS011;395;48.132;11.608;2023-07-13T05:19:56;3.17;;;2.87;;
826;SDS011;395;48.132;11.608;2023-07-13T05:22:22;4.10;;;2.70;;
826;SDS011;395;48.132;11.608;2023-07-13T05:24:48;3.47;;;3.07;;
826;SDS011;395;48.132;11.608;2023-07-13T05:27:13;3.40;;;2.87;;
826;SDS011;395;48.132;11.608;2023-07-13T05:29:39;4.63;;;2.80;;
826;SDS011;395;48.132;11.608;2023-07-13T05:32:05;3.73;;;3.00;;
826;SDS011;395;48.132;11.608;2023-07-13T05:34:31;5.60;;;3.00;;
826;SDS011;395;48.132;11.608;2023-07-13T05:36:57;4.73;;;3.10;;
826;SDS011;395;48.132;11.608;2023-07-13T05:39:22;4.97;;;3.30;;
826;SDS011;395;48.132;11.608;2023-07-13T05:41:48;3.53;;;3.20;;
826;SDS011;395;48.132;11.608;2023-07-13T05:44:14;4.03;;;3.23;;
826;SDS011;395;48.132;11.608;2023-07-13T05:46:39;4.63;;;3.33;;
826;SDS011;395;48.132;11.608;2023-07-13T05:49:05;3.87;;;2.97;;
826;SDS011;395;48.132;11.608;2023-07-13T05:51:31;4.93;;;3.10;;
826;SDS011;395;48.132;11.608;2023-07-13T05:53:57;3.70;;;3.17;;
826;SDS011;395;48.132;11.608;2023-07-13T05:56:22;3.20;;;3.00;;
826;SDS011;395;48.132;11.608;2023-07-13T05:58:50;3.67;;;3.13;;
826;SDS011;395;48.132;11.608;2023-07-13T06:01:16;4.63;;;3.43;;
826;SDS011;395;48.132;11.608;2023-07-13T06:03:42;3.60;;;3.10;;
826;SDS011;395;48.132;11.608;2023-07-13T06:06:08;3.47;;;3.17;;
826;SDS011;395;48.132;11.608;2023-07-13T06:08:35;3.50;;;3.20;;
826;SDS011;395;48.132;11.608;2023-07-13T06:11:22;4.63;;;3.17;;
826;SDS011;395;48.132;11.608;2023-07-13T06:13:48;3.30;;;3.03;;
826;SDS011;395;48.132;11.608;2023-07-13T06:16:14;5.37;;;3.07;;
826;SDS011;395;48.132;11.608;2023-07-13T06:18:40;3.87;;;3.10;;
826;SDS011;395;48.132;11.608;2023-07-13T06:21:10;4.10;;;3.37;;
826;SDS011;395;48.132;11.608;2023-07-13T06:23:38;3.50;;;3.20;;
826;SDS011;395;48.132;11.608;2023-07-13T06:26:04;4.03;;;3.23;;
826;SDS011;395;48.132;11.608;2023-07-13T06:28:30;4.10;;;3.27;;
826;SDS011;395;48.132;11.608;2023-07-13T06:30:57;3.30;;;2.63;;
826;SDS011;395;48.132;11.608;2023-07-13T06:33:24;5.80;;;3.40;;
826;SDS011;395;48.132;11.608;2023-07-13T06:35:50;3.50;;;3.20;;
826;SDS011;395;48.132;11.608;2023-07-13T06:38:15;4.33;;;3.43;;
826;SDS011;395;48.132;11.608;2023-07-13T06:40:41;5.63;;;3.57;;
826;SDS011;395;48.132;11.608;2023-07-13T06:43:07;4.00;;;3.27;;
826;SDS011;395;48.132;11.608;2023-07-13T06:45:34;4.10;;;3.13;;
826;SDS011;395;48.132;11.608;2023-07-13T06:48:05;5.70;;;3.37;;
826;SDS011;395;48.132;11.608;2023-07-13T06:50:31;6.13;;;3.27;;
826;SDS011;395;48.132;11.608;2023-07-13T06:52:56;5.93;;;2.77;;
826;SDS011;395;48.132;11.608;2023-07-13T06:55:24;4.93;;;2.90;;
826;SDS011;395;48.132;11.608;2023-07-13T06:57:50;3.30;;;2.87;;
826;SDS011;395;48.132;11.608;2023-07-13T07:00:16;3.90;;;2.90;;
826;SDS011;395;48.132;11.608;2023-07-13T07:02:42;5.73;;;2.60;;
826;SDS011;395;48.132;11.608;2023-07-13T07:05:07;3.80;;;3.07;;
826;SDS011;395;48.132;11.608;2023-07-13T07:07:33;3.60;;;2.50;;
826;SDS011;395;48.132;11.608;2023-07-13T07:09:59;3.07;;;2.77;;
826;SDS011;395;48.132;11.608;2023-07-13T07:12:24;3.50;;;2.93;;
826;SDS011;395;48.132;11.608;2023-07-13T07:14:50;4.30;;;2.80;;
826;SDS011;395;48.132;11.608;2023-07-13T07:17:16;2.90;;;2.60;;
826;SDS011;395;48.132;11.608;2023-07-13T07:19:42;2.60;;;2.40;;
826;SDS011;395;48.132;11.608;2023-07-13T07:22:07;7.00;;;3.10;;
826;SDS011;395;48.132;11.608;2023-07-13T07:24:33;4.13;;;2.53;;
826;SDS011;395;48.132;11.608;2023-07-13T07:26:59;3.00;;;2.70;;
826;SDS011;395;48.132;11.608;2023-07-13T07:29:24;3.17;;;2.30;;
826;SDS011;395;48.132;11.608;2023-07-13T07:31:52;4.47;;;3.23;;
826;SDS011;395;48.132;11.608;2023-07-13T07:34:18;2.97;;;2.67;;
826;SDS011;395;48.132;11.608;2023-07-13T07:36:44;3.10;;;2.30;;
826;SDS011;395;48.132;11.608;2023-07-13T07:39:10;3.73;;;2.40;;
826;SDS011;395;48.132;11.608;2023-07-13T07:41:36;3.50;;;2.50;;
826;SDS011;395;48.132;11.608;2023-07-13T07:44:02;4.20;;;3.00;;
826;SDS011;395;48.132;11.608;2023-07-13T07:46:29;4.37;;;2.37;;
826;SDS011;395;48.132;11.608;2023-07-13T07:48:55;5.13;;;2.77;;
826;SDS011;395;48.132;11.608;2023-07-13T07:51:21;3.63;;;2.90;;
826;SDS011;395;48.132;11.608;2023-07-13T07:53:47;3.83;;;2.63;;
826;SDS011;395;48.132;11.608;2023-07-13T07:56:13;4.23;;;2.87;;
826;SDS011;395;48.132;11.608;2023-07-13T07:58:41;3.80;;;2.60;;
826;SDS011;395;48.132;11.608;2023-07-13T08:01:07;4.27;;;3.03;;
826;SDS011;395;48.132;11.608;2023-07-13T08:03:33;4.07;;;2.80;;
826;SDS011;395;48.132;11.608;2023-07-13T08:05:59;4.00;;;2.90;;
826;SDS011;395;48.132;11.608;2023-07-13T08:08:24;4.37;;;2.57;;
826;SDS011;395;48.132;11.608;2023-07-13T08:10:51;4.03;;;3.17;;
826;SDS011;395;48.132;11.608;2023-07-13T08:13:17;3.83;;;3.00;;
826;SDS011;395;48.132;11.608;2023-07-13T08:15:42;3.87;;;2.60;;
826;SDS011;395;48.132;11.608;2023-07-13T08:18:08;4.00;;;2.50;;
826;SDS011;395;48.132;11.608;2023-07-13T08:20:36;6.53;;;2.70;;
826;SDS011;395;48.132;11.608;2023-07-13T08:23:03;5.10;;;3.03;;
826;SDS011;395;48.132;11.608;2023-07-13T08:25:29;2.90;;;2.60;;
826;SDS011;395;48.132;11.608;2023-07-13T08:27:54;2.77;;;2.30;;
826;SDS011;395;48.132;11.608;2023-07-13T08:30:20;4.50;;;2.40;;
826;SDS011;395;48.132;11.608;2023-07-13T08:32:46;3.53;;;2.63;;
826;SDS011;395;48.132;11.608;2023-07-13T08:35:11;3.90;;;2.73;;
826;SDS011;395;48.132;11.608;2023-07-13T08:37:38;3.13;;;2.47;;
826;SDS011;395;48.132;11.608;2023-07-13T08:40:04;2.50;;;2.17;;
826;SDS011;395;48.132;11.608;2023-07-13T08:42:46;2.70;;;2.20;;
826;SDS011;395;48.132;11.608;2023-07-13T08:50:52;3.27;;;1.93;;
826;SDS011;395;48.132;11.608;2023-07-13T08:53:48;3.50;;;2.13;;
826;SDS011;395;48.132;11.608;2023-07-13T08:56:17;3.23;;;2.40;;
826;SDS011;395;48.132;11.608;2023-07-13T08:58:47;2.90;;;2.13;;
826;SDS011;395;48.132;11.608;2023-07-13T09:12:12;2.40;;;2.07;;
826;SDS011;395;48.132;11.608;2023-07-13T09:14:50;4.60;;;1.97;;
826;SDS011;395;48.132;11.608;2023-07-13T09:17:20;4.00;;;2.30;;
826;SDS011;395;48.132;11.608;2023-07-13T09:19:53;3.70;;;1.93;;
826;SDS011;395;48.132;11.608;2023-07-13T09:22:24;4.10;;;2.10;;
826;SDS011;395;48.132;11.608;2023-07-13T09:24:54;2.77;;;1.83;;
826;SDS011;395;48.132;11.608;2023-07-13T09:27:38;4.37;;;2.13;;
826;SDS011;395;48.132;11.608;2023-07-13T09:32:42;2.33;;;2.00;;
826;SDS011;395;48.132;11.608;2023-07-13T09:35:13;3.37;;;1.80;;
826;SDS011;395;48.132;11.608;2023-07-13T09:37:45;2.10;;;1.60;;
826;SDS011;395;48.132;11.608;2023-07-13T09:40:14;2.23;;;2.03;;
826;SDS011;395;48.132;11.608;2023-07-13T09:42:48;4.80;;;2.10;;
826;SDS011;395;48.132;11.608;2023-07-13T09:45:17;2.37;;;1.50;;
826;SDS011;395;48.132;11.608;2023-07-13T09:47:58;2.73;;;1.73;;
826;SDS011;395;48.132;11.608;2023-07-13T09:50:28;2.50;;;1.57;;
826;SDS011;395;48.132;11.608;2023-07-13T09:52:54;3.17;;;1.90;;
826;SDS011;395;48.132;11.608;2023-07-13T09:55:25;3.60;;;1.90;;
826;SDS011;395;48.132;11.608;2023-07-13T09:57:54;3.50;;;1.83;;
826;SDS011;395;48.132;11.608;2023-07-13T10:00:24;2.70;;;1.93;;
826;SDS011;395;48.132;11.608;2023-07-13T10:02:58;5.17;;;2.10;;
826;SDS011;395;48.132;11.608;2023-07-13T10:05:37;2.40;;;1.63;;
826;SDS011;395;48.132;11.608;2023-07-13T10:08:14;1.93;;;1.73;;
826;SDS011;395;48.132;11.608;2023-07-13T10:10:43;1.70;;;1.60;;
826;SDS011;395;48.132;11.608;2023-07-13T10:13:25;9.07;;;2.00;;
826;SDS011;395;48.132;11.608;2023-07-13T10:15:52;4.47;;;2.07;;
826;SDS011;395;48.132;11.608;2023-07-13T10:18:18;2.13;;;1.77;;
826;SDS011;395;48.132;11.608;2023-07-13T10:20:45;4.40;;;2.00;;
826;SDS011;395;48.132;11.608;2023-07-13T10:23:13;2.73;;;2.00;;
826;SDS011;395;48.132;11.608;2023-07-13T10:25:42;3.20;;;1.60;;
826;SDS011;395;48.132;11.608;2023-07-13T10:28:25;2.10;;;1.50;;
826;SDS011;395;48.132;11.608;2023-07-13T10:30:52;2.93;;;1.60;;
826;SDS011;395;48.132;11.608;2023-07-13T10:33:20;5.10;;;2.00;;
826;SDS011;395;48.132;11.608;2023-07-13T10:35:47;1.63;;;1.53;;
826;SDS011;395;48.132;11.608;2023-07-13T10:38:18;3.97;;;1.83;;
826;SDS011;395;48.132;11.608;2023-07-13T10:41:20;4.37;;;1.77;;
826;SDS011;395;48.132;11.608;2023-07-13T10:43:39;3.00;;;2.00;;
826;SDS011;395;48.132;11.608;2023-07-13T10:46:07;7.80;;;1.30;;
826;SDS011;395;48.132;11.608;2023-07-13T10:48:34;2.10;;;1.70;;
826;SDS011;395;48.132;11.608;2023-07-13T10:51:02;2.73;;;1.77;;
826;SDS011;395;48.132;11.608;2023-07-13T10:53:31;1.70;;;1.60;;
826;SDS011;395;48.132;11.608;2023-07-13T10:56:05;5.80;;;1.80;;
826;SDS011;395;48.132;11.608;2023-07-13T10:58:40;3.03;;;1.77;;
826;SDS011;395;48.132;11.608;2023-07-13T11:03:33;4.23;;;1.80;;
826;SDS011;395;48.132;11.608;2023-07-13T11:08:36;1.97;;;1.77;;
826;SDS011;395;48.132;11.608;2023-07-13T11:11:03;1.67;;;1.57;;
826;SDS011;395;48.132;11.608;2023-07-13T11:18:52;2.47;;;1.93;;
826;SDS011;395;48.132;11.608;2023-07-13T11:21:19;2.70;;;2.10;;
826;SDS011;395;48.132;11.608;2023-07-13T11:23:51;3.53;;;2.20;;
826;SDS011;395;48.132;11.608;2023-07-13T11:31:52;2.07;;;1.87;;
826;SDS011;395;48.132;11.608;2023-07-13T11:34:21;4.20;;;1.80;;
826;SDS011;395;48.132;11.608;2023-07-13T11:36:49;2.40;;;2.10;;
826;SDS011;395;48.132;11.608;2023-07-13T11:41:45;2.90;;;1.60;;
826;SDS011;395;48.132;11.608;2023-07-13T11:44:16;2.87;;;1.83;;
826;SDS011;395;48.132;11.608;2023-07-13T11:46:47;2.40;;;1.50;;
826;SDS011;395;48.132;11.608;2023-07-13T11:49:15;3.40;;;1.67;;
826;SDS011;395;48.132;11.608;2023-07-13T11:51:41;2.57;;;1.70;;
826;SDS011;395;48.132;11.608;2023-07-13T11:54:21;2.20;;;2.00;;
826;SDS011;395;48.132;11.608;2023-07-13T11:56:49;3.90;;;1.97;;
826;SDS011;395;48.132;11.608;2023-07-13T11:59:15;2.53;;;1.63;;
826;SDS011;395;48.132;11.608;2023-07-13T12:01:42;2.77;;;2.17;;
826;SDS011;395;48.132;11.608;2023-07-13T12:04:15;2.10;;;1.73;;
826;SDS011;395;48.132;11.608;2023-07-13T12:06:46;3.60;;;2.20;;
826;SDS011;395;48.132;11.608;2023-07-13T12:09:13;2.83;;;1.77;;
826;SDS011;395;48.132;11.608;2023-07-13T12:11:41;2.00;;;1.80;;
826;SDS011;395;48.132;11.608;2023-07-13T12:14:18;3.63;;;1.87;;
826;SDS011;395;48.132;11.608;2023-07-13T12:16:47;3.27;;;1.80;;
826;SDS011;395;48.132;11.608;2023-07-13T12:19:18;2.23;;;1.60;;
826;SDS011;395;48.132;11.608;2023-07-13T12:21:45;2.53;;;2.10;;
826;SDS011;395;48.132;11.608;2023-07-13T12:24:15;4.77;;;2.47;;
826;SDS011;395;48.132;11.608;2023-07-13T12:26:41;2.30;;;1.63;;
826;SDS011;395;48.132;11.608;2023-07-13T12:29:07;1.63;;;1.40;;
826;SDS011;395;48.132;11.608;2023-07-13T12:31:35;2.20;;;1.80;;
826;SDS011;395;48.132;11.608;2023-07-13T12:34:12;3.13;;;1.83;;
826;SDS011;395;48.132;11.608;2023-07-13T12:36:40;2.13;;;1.53;;
826;SDS011;395;48.132;11.608;2023-07-13T12:39:12;3.33;;;2.17;;
826;SDS011;395;48.132;11.608;2023-07-13T12:41:39;4.30;;;1.60;;
826;SDS011;395;48.132;11.608;2023-07-13T12:44:09;5.30;;;1.73;;
826;SDS011;395;48.132;11.608;2023-07-13T12:46:36;3.10;;;2.13;;
826;SDS011;395;48.132;11.608;2023-07-13T12:49:04;2.97;;;2.40;;
826;SDS011;395;48.132;11.608;2023-07-13T12:51:32;2.10;;;1.90;;
826;SDS011;395;48.132;11.608;2023-07-13T12:54:05;3.67;;;2.10;;
826;SDS011;395;48.132;11.608;2023-07-13T12:56:32;2.00;;;1.90;;
826;SDS011;395;48.132;11.608;2023-07-13T12:59:00;2.27;;;1.83;;
826;SDS011;395;48.132;11.608;2023-07-13T13:01:28;2.10;;;1.90;;
826;SDS011;395;48.132;11.608;2023-07-13T13:03:54;3.23;;;2.10;;
826;SDS011;395;48.132;11.608;2023-07-13T13:06:23;2.13;;;1.90;;
826;SDS011;395;48.132;11.608;2023-07-13T13:08:50;2.70;;;2.50;;
826;SDS011;395;48.132;11.608;2023-07-13T13:11:17;1.90;;;1.80;;
826;SDS011;395;48.132;11.608;2023-07-13T13:13:43;2.83;;;2.00;;
826;SDS011;395;48.132;11.608;2023-07-13T13:16:22;2.53;;;2.33;;
826;SDS011;395;48.132;11.608;2023-07-13T13:18:50;2.40;;;1.97;;
826;SDS011;395;48.132;11.608;2023-07-13T13:21:16;2.63;;;2.07;;
826;SDS011;395;48.132;11.608;2023-07-13T13:23:43;2.80;;;1.87;;
826;SDS011;395;48.132;11.608;2023-07-13T13:26:10;2.33;;;1.97;;
826;SDS011;395;48.132;11.608;2023-07-13T13:28:36;2.70;;;1.87;;
826;SDS011;395;48.132;11.608;2023-07-13T13:31:02;2.27;;;2.07;;
826;SDS011;395;48.132;11.608;2023-07-13T13:33:28;2.33;;;2.13;;
826;SDS011;395;48.132;11.608;2023-07-13T13:35:55;2.60;;;1.87;;
826;SDS011;395;48.132;11.608;2023-07-13T13:38:26;2.00;;;1.90;;
826;SDS011;395;48.132;11.608;2023-07-13T13:40:52;2.60;;;2.10;;
826;SDS011;395;48.132;11.608;2023-07-13T13:43:21;2.07;;;1.60;;
826;SDS011;395;48.132;11.608;2023-07-13T13:45:51;1.60;;;1.50;;
826;SDS011;395;48.132;11.608;2023-07-13T13:48:18;2.43;;;2.00;;
826;SDS011;395;48.132;11.608;2023-07-13T13:50:44;2.20;;;1.90;;
826;SDS011;395;48.132;11.608;2023-07-13T13:53:11;2.70;;;1.47;;
826;SDS011;395;48.132;11.608;2023-07-13T13:55:41;3.77;;;1.90;;
826;SDS011;395;48.132;11.608;2023-07-13T13:58:08;6.80;;;1.60;;
826;SDS011;395;48.132;11.608;2023-07-13T14:00:35;3.20;;;2.10;;
826;SDS011;395;48.132;11.608;2023-07-13T14:03:01;2.13;;;1.70;;
826;SDS011;395;48.132;11.608;2023-07-13T14:05:27;2.07;;;1.80;;
826;SDS011;395;48.132;11.608;2023-07-13T14:07:55;2.20;;;2.00;;
826;SDS011;395;48.132;11.608;2023-07-13T14:10:24;2.03;;;1.60;;
826;SDS011;395;48.132;11.608;2023-07-13T14:12:52;2.23;;;2.03;;
826;SDS011;395;48.132;11.608;2023-07-13T14:15:23;2.00;;;1.83;;
826;SDS011;395;48.132;11.608;2023-07-13T14:17:49;3.53;;;1.90;;
826;SDS011;395;48.132;11.608;2023-07-13T14:20:15;2.53;;;1.63;;
826;SDS011;395;48.132;11.608;2023-07-13T14:22:42;3.37;;;2.00;;
826;SDS011;395;48.132;11.608;2023-07-13T14:25:13;1.90;;;1.80;;
826;SDS011;395;48.132;11.608;2023-07-13T14:27:40;2.97;;;1.97;;
826;SDS011;395;48.132;11.608;2023-07-13T14:30:17;2.27;;;1.93;;
826;SDS011;395;48.132;11.608;2023-07-13T14:32:43;1.77;;;1.67;;
826;SDS011;395;48.132;11.608;2023-07-13T14:35:11;1.90;;;1.70;;
826;SDS011;395;48.132;11.608;2023-07-13T14:37:37;3.20;;;1.90;;
826;SDS011;395;48.132;11.608;2023-07-13T14:40:11;3.77;;;1.97;;
826;SDS011;395;48.132;11.608;2023-07-13T14:42:37;2.40;;;1.57;;
826;SDS011;395;48.132;11.608;2023-07-13T14:45:03;3.50;;;1.67;;
826;SDS011;395;48.132;11.608;2023-07-13T14:47:30;3.70;;;1.70;;
826;SDS011;395;48.132;11.608;2023-07-13T14:49:56;2.23;;;1.77;;
826;SDS011;395;48.132;11.608;2023-07-13T14:52:23;1.90;;;1.70;;
826;SDS011;395;48.132;11.608;2023-07-13T14:54:49;2.00;;;1.80;;
826;SDS011;395;48.132;11.608;2023-07-13T14:57:16;1.87;;;1.77;;
826;SDS011;395;48.132;11.608;2023-07-13T14:59:44;3.83;;;1.90;;
826;SDS011;395;48.132;11.608;2023-07-13T15:04:42;1.97;;;1.60;;
826;SDS011;395;48.132;11.608;2023-07-13T15:07:09;2.40;;;1.70;;
826;SDS011;395;48.132;11.608;2023-07-13T15:09:35;2.00;;;1.57;;
826;SDS011;395;48.132;11.608;2023-07-13T15:12:01;2.40;;;1.80;;
826;SDS011;395;48.132;11.608;2023-07-13T15:14:28;3.80;;;2.27;;
826;SDS011;395;48.132;11.608;2023-07-13T15:16:54;1.70;;;1.60;;
826;SDS011;395;48.132;11.608;2023-07-13T15:19:21;3.23;;;2.00;;
826;SDS011;395;48.132;11.608;2023-07-13T15:21:48;1.90;;;1.70;;
826;SDS011;395;48.132;11.608;2023-07-13T15:24:16;2.90;;;1.80;;
826;SDS011;395;48.132;11.608;2023-07-13T15:26:42;1.90;;;1.70;;
826;SDS011;395;48.132;11.608;2023-07-13T15:29:10;1.80;;;1.67;;
826;SDS011;395;48.132;11.608;2023-07-13T15:34:24;1.57;;;1.47;;
826;SDS011;395;48.132;11.608;2023-07-13T15:36:51;2.50;;;1.80;;
826;SDS011;395;48.132;11.608;2023-07-13T15:39:17;2.00;;;1.80;;
826;SDS011;395;48.132;11.608;2023-07-13T15:41:44;4.07;;;1.90;;
826;SDS011;395;48.132;11.608;2023-07-13T15:46:49;2.50;;;1.60;;
826;SDS011;395;48.132;11.608;2023-07-13T16:01:43;2.73;;;1.90;;
826;SDS011;395;48.132;11.608;2023-07-13T16:04:11;3.40;;;2.30;;
826;SDS011;395;48.132;11.608;2023-07-13T16:06:39;2.03;;;1.83;;
826;SDS011;395;48.132;11.608;2023-07-13T16:09:06;2.27;;;2.07;;
826;SDS011;395;48.132;11.608;2023-07-13T16:11:33;4.40;;;2.10;;
826;SDS011;395;48.132;11.608;2023-07-13T16:14:00;2.60;;;2.07;;
826;SDS011;395;48.132;11.608;2023-07-13T16:16:27;2.80;;;2.07;;
826;SDS011;395;48.132;11.608;2023-07-13T16:18:57;2.10;;;1.90;;
826;SDS011;395;48.132;11.608;2023-07-13T16:21:24;2.10;;;2.00;;
826;SDS011;395;48.132;11.608;2023-07-13T16:23:51;4.10;;;2.10;;
826;SDS011;395;48.132;11.608;2023-07-13T16:26:28;3.07;;;2.03;;
826;SDS011;395;48.132;11.608;2023-07-13T16:28:58;3.27;;;2.40;;
826;SDS011;395;48.132;11.608;2023-07-13T16:31:29;4.70;;;4.20;;
826;SDS011;395;48.132;11.608;2023-07-13T16:33:56;3.67;;;2.70;;
826;SDS011;395;48.132;11.608;2023-07-13T16:36:24;2.33;;;2.10;;
826;SDS011;395;48.132;11.608;2023-07-13T16:38:50;2.90;;;1.97;;
826;SDS011;395;48.132;11.608;2023-07-13T16:41:16;2.23;;;1.87;;
826;SDS011;395;48.132;11.608;2023-07-13T16:43:42;4.00;;;2.33;;
826;SDS011;395;48.132;11.608;2023-07-13T16:46:10;2.70;;;2.07;;
826;SDS011;395;48.132;11.608;2023-07-13T16:48:39;4.50;;;2.40;;
826;SDS011;395;48.132;11.608;2023-07-13T16:51:05;2.90;;;2.00;;
826;SDS011;395;48.132;11.608;2023-07-13T16:53:32;3.70;;;2.00;;
826;SDS011;395;48.132;11.608;2023-07-13T16:55:58;4.03;;;2.10;;
826;SDS011;395;48.132;11.608;2023-07-13T16:58:25;4.87;;;2.83;;
826;SDS011;395;48.132;11.608;2023-07-13T17:00:55;2.77;;;2.57;;